sensor_id;sensor_type;location;lat;lon;timestamp;P1;durP1;ratioP1;P2;durP2;ratioP2
21589;SDS011;10957;50.968;6.828;2022-11-21T00:01:51;10.05;;;9.55;;
21589;SDS011;10957;50.968;6.828;2022-11-21T00:06:51;9.50;;;9.00;;
21589;SDS011;10957;50.968;6.828;2022-11-21T00:11:52;9.50;;;9.00;;
21589;SDS011;10957;50.968;6.828;2022-11-21T00:16:53;9.40;;;8.90;;
21589;SDS011;10957;50.968;6.828;2022-11-21T00:21:53;8.90;;;8.50;;
21589;SDS011;10957;50.968;6.828;2022-11-21T00:26:54;8.68;;;8.27;;
21589;SDS011;10957;50.968;6.828;2022-11-21T00:31:55;8.80;;;8.40;;
21589;SDS011;10957;50.968;6.828;2022-11-21T00:36:56;8.90;;;8.50;;
21589;SDS011;10957;50.968;6.828;2022-11-21T00:41:56;8.90;;;8.50;;
21589;SDS011;10957;50.968;6.828;2022-11-21T00:46:57;8.60;;;8.20;;
21589;SDS011;10957;50.968;6.828;2022-11-21T00:51:58;8.70;;;8.30;;
21589;SDS011;10957;50.968;6.828;2022-11-21T00:56:58;8.20;;;7.80;;
21589;SDS011;10957;50.968;6.828;2022-11-21T01:01:59;8.32;;;7.93;;
21589;SDS011;10957;50.968;6.828;2022-11-21T01:07:00;8.18;;;7.78;;
21589;SDS011;10957;50.968;6.828;2022-11-21T01:12:01;8.10;;;7.70;;
21589;SDS011;10957;50.968;6.828;2022-11-21T01:17:01;8.07;;;7.68;;
21589;SDS011;10957;50.968;6.828;2022-11-21T01:22:02;9.63;;;8.93;;
21589;SDS011;10957;50.968;6.828;2022-11-21T01:27:03;8.57;;;8.17;;
21589;SDS011;10957;50.968;6.828;2022-11-21T01:32:03;9.10;;;8.60;;
21589;SDS011;10957;50.968;6.828;2022-11-21T01:37:04;8.40;;;8.00;;
21589;SDS011;10957;50.968;6.828;2022-11-21T01:42:05;8.50;;;8.10;;
21589;SDS011;10957;50.968;6.828;2022-11-21T01:47:05;8.20;;;7.80;;
21589;SDS011;10957;50.968;6.828;2022-11-21T01:52:08;10.60;;;9.60;;
21589;SDS011;10957;50.968;6.828;2022-11-21T02:02:13;8.60;;;8.20;;
21589;SDS011;10957;50.968;6.828;2022-11-21T02:07:17;8.40;;;8.00;;
21589;SDS011;10957;50.968;6.828;2022-11-21T02:12:31;8.32;;;7.93;;
21589;SDS011;10957;50.968;6.828;2022-11-21T02:17:37;8.50;;;8.10;;
21589;SDS011;10957;50.968;6.828;2022-11-21T02:22:41;8.03;;;7.63;;
21589;SDS011;10957;50.968;6.828;2022-11-21T02:28:05;8.50;;;8.10;;
21589;SDS011;10957;50.968;6.828;2022-11-21T02:33:08;8.10;;;7.70;;
21589;SDS011;10957;50.968;6.828;2022-11-21T02:38:12;8.37;;;7.97;;
21589;SDS011;10957;50.968;6.828;2022-11-21T02:43:22;8.00;;;7.60;;
21589;SDS011;10957;50.968;6.828;2022-11-21T02:48:25;8.13;;;7.73;;
21589;SDS011;10957;50.968;6.828;2022-11-21T02:53:25;8.00;;;7.60;;
21589;SDS011;10957;50.968;6.828;2022-11-21T02:58:26;8.27;;;7.88;;
21589;SDS011;10957;50.968;6.828;2022-11-21T03:03:27;8.20;;;7.80;;
21589;SDS011;10957;50.968;6.828;2022-11-21T03:08:28;8.30;;;7.90;;
21589;SDS011;10957;50.968;6.828;2022-11-21T03:13:28;8.15;;;7.75;;
21589;SDS011;10957;50.968;6.828;2022-11-21T03:18:29;8.48;;;8.07;;
21589;SDS011;10957;50.968;6.828;2022-11-21T03:23:30;7.72;;;7.32;;
21589;SDS011;10957;50.968;6.828;2022-11-21T03:28:30;8.18;;;7.78;;
21589;SDS011;10957;50.968;6.828;2022-11-21T03:33:31;8.10;;;7.70;;
21589;SDS011;10957;50.968;6.828;2022-11-21T03:38:32;8.10;;;7.70;;
21589;SDS011;10957;50.968;6.828;2022-11-21T03:43:32;8.10;;;7.70;;
21589;SDS011;10957;50.968;6.828;2022-11-21T03:48:33;8.18;;;7.78;;
21589;SDS011;10957;50.968;6.828;2022-11-21T03:53:34;8.10;;;7.70;;
21589;SDS011;10957;50.968;6.828;2022-11-21T03:58:34;8.60;;;8.20;;
21589;SDS011;10957;50.968;6.828;2022-11-21T04:03:35;7.97;;;7.57;;
21589;SDS011;10957;50.968;6.828;2022-11-21T04:08:36;8.02;;;7.63;;
21589;SDS011;10957;50.968;6.828;2022-11-21T04:13:37;7.70;;;7.30;;
21589;SDS011;10957;50.968;6.828;2022-11-21T04:18:38;8.07;;;7.68;;
21589;SDS011;10957;50.968;6.828;2022-11-21T04:23:39;8.00;;;7.60;;
21589;SDS011;10957;50.968;6.828;2022-11-21T04:28:39;9.15;;;8.65;;
21589;SDS011;10957;50.968;6.828;2022-11-21T04:33:40;8.52;;;7.93;;
21589;SDS011;10957;50.968;6.828;2022-11-21T04:38:41;8.20;;;7.80;;
21589;SDS011;10957;50.968;6.828;2022-11-21T04:43:41;8.55;;;8.15;;
21589;SDS011;10957;50.968;6.828;2022-11-21T04:48:42;8.45;;;8.05;;
21589;SDS011;10957;50.968;6.828;2022-11-21T04:53:43;8.43;;;8.02;;
21589;SDS011;10957;50.968;6.828;2022-11-21T04:58:44;8.00;;;7.60;;
21589;SDS011;10957;50.968;6.828;2022-11-21T05:03:44;7.90;;;7.50;;
21589;SDS011;10957;50.968;6.828;2022-11-21T05:08:45;7.68;;;7.28;;
21589;SDS011;10957;50.968;6.828;2022-11-21T05:13:46;8.65;;;8.10;;
21589;SDS011;10957;50.968;6.828;2022-11-21T05:18:46;8.23;;;7.83;;
21589;SDS011;10957;50.968;6.828;2022-11-21T05:23:47;7.97;;;7.57;;
21589;SDS011;10957;50.968;6.828;2022-11-21T05:28:48;7.55;;;7.20;;
21589;SDS011;10957;50.968;6.828;2022-11-21T05:33:48;10.27;;;9.48;;
21589;SDS011;10957;50.968;6.828;2022-11-21T05:38:49;7.70;;;7.30;;
21589;SDS011;10957;50.968;6.828;2022-11-21T05:43:50;8.23;;;7.80;;
21589;SDS011;10957;50.968;6.828;2022-11-21T05:48:51;8.80;;;8.30;;
21589;SDS011;10957;50.968;6.828;2022-11-21T05:53:53;8.65;;;8.25;;
21589;SDS011;10957;50.968;6.828;2022-11-21T05:58:54;8.55;;;8.07;;
21589;SDS011;10957;50.968;6.828;2022-11-21T06:03:56;7.30;;;7.00;;
21589;SDS011;10957;50.968;6.828;2022-11-21T06:08:57;7.80;;;7.40;;
21589;SDS011;10957;50.968;6.828;2022-11-21T06:13:57;7.57;;;7.22;;
21589;SDS011;10957;50.968;6.828;2022-11-21T06:18:58;8.02;;;7.63;;
21589;SDS011;10957;50.968;6.828;2022-11-21T06:23:59;8.30;;;7.90;;
21589;SDS011;10957;50.968;6.828;2022-11-21T06:29:00;8.20;;;7.80;;
21589;SDS011;10957;50.968;6.828;2022-11-21T06:34:00;7.93;;;7.53;;
21589;SDS011;10957;50.968;6.828;2022-11-21T06:39:01;7.80;;;7.40;;
21589;SDS011;10957;50.968;6.828;2022-11-21T06:44:02;7.82;;;7.43;;
21589;SDS011;10957;50.968;6.828;2022-11-21T06:49:03;8.00;;;7.60;;
21589;SDS011;10957;50.968;6.828;2022-11-21T06:54:03;8.45;;;8.05;;
21589;SDS011;10957;50.968;6.828;2022-11-21T06:59:04;8.82;;;8.32;;
21589;SDS011;10957;50.968;6.828;2022-11-21T07:04:05;7.80;;;7.40;;
21589;SDS011;10957;50.968;6.828;2022-11-21T07:09:06;9.43;;;8.73;;
21589;SDS011;10957;50.968;6.828;2022-11-21T07:14:06;8.40;;;8.00;;
21589;SDS011;10957;50.968;6.828;2022-11-21T07:19:07;8.32;;;7.90;;
21589;SDS011;10957;50.968;6.828;2022-11-21T07:24:08;8.43;;;8.02;;
21589;SDS011;10957;50.968;6.828;2022-11-21T07:29:09;9.82;;;9.02;;
21589;SDS011;10957;50.968;6.828;2022-11-21T07:34:09;8.25;;;7.85;;
21589;SDS011;10957;50.968;6.828;2022-11-21T07:39:10;8.20;;;7.80;;
21589;SDS011;10957;50.968;6.828;2022-11-21T07:44:11;8.63;;;8.23;;
21589;SDS011;10957;50.968;6.828;2022-11-21T07:49:14;7.93;;;7.53;;
21589;SDS011;10957;50.968;6.828;2022-11-21T07:54:15;8.45;;;8.05;;
21589;SDS011;10957;50.968;6.828;2022-11-21T07:59:16;8.40;;;8.00;;
21589;SDS011;10957;50.968;6.828;2022-11-21T08:04:18;8.57;;;8.15;;
21589;SDS011;10957;50.968;6.828;2022-11-21T08:09:19;8.68;;;8.27;;
21589;SDS011;10957;50.968;6.828;2022-11-21T08:14:19;9.20;;;8.70;;
21589;SDS011;10957;50.968;6.828;2022-11-21T08:19:20;9.18;;;8.68;;
21589;SDS011;10957;50.968;6.828;2022-11-21T08:24:21;8.38;;;7.97;;
21589;SDS011;10957;50.968;6.828;2022-11-21T08:29:22;8.32;;;7.93;;
21589;SDS011;10957;50.968;6.828;2022-11-21T08:34:22;8.00;;;7.60;;
21589;SDS011;10957;50.968;6.828;2022-11-21T08:39:23;8.23;;;7.78;;
21589;SDS011;10957;50.968;6.828;2022-11-21T08:44:24;8.68;;;8.27;;
21589;SDS011;10957;50.968;6.828;2022-11-21T08:49:25;7.30;;;7.00;;
21589;SDS011;10957;50.968;6.828;2022-11-21T08:54:26;7.55;;;7.18;;
21589;SDS011;10957;50.968;6.828;2022-11-21T08:59:27;7.45;;;7.15;;
21589;SDS011;10957;50.968;6.828;2022-11-21T09:04:28;8.50;;;8.00;;
21589;SDS011;10957;50.968;6.828;2022-11-21T09:09:28;8.70;;;8.20;;
21589;SDS011;10957;50.968;6.828;2022-11-21T09:14:29;8.18;;;7.78;;
21589;SDS011;10957;50.968;6.828;2022-11-21T09:19:48;7.88;;;7.47;;
21589;SDS011;10957;50.968;6.828;2022-11-21T09:24:49;7.93;;;7.53;;
21589;SDS011;10957;50.968;6.828;2022-11-21T09:29:50;8.30;;;7.90;;
21589;SDS011;10957;50.968;6.828;2022-11-21T09:34:50;8.30;;;7.90;;
21589;SDS011;10957;50.968;6.828;2022-11-21T09:39:51;8.10;;;7.70;;
21589;SDS011;10957;50.968;6.828;2022-11-21T09:44:56;8.50;;;8.10;;
21589;SDS011;10957;50.968;6.828;2022-11-21T09:55:20;7.82;;;7.43;;
21589;SDS011;10957;50.968;6.828;2022-11-21T10:00:23;8.20;;;7.80;;
21589;SDS011;10957;50.968;6.828;2022-11-21T10:05:31;9.02;;;8.52;;
21589;SDS011;10957;50.968;6.828;2022-11-21T10:16:02;7.80;;;7.40;;
21589;SDS011;10957;50.968;6.828;2022-11-21T10:31:32;7.70;;;7.30;;
21589;SDS011;10957;50.968;6.828;2022-11-21T10:36:37;7.18;;;6.88;;
21589;SDS011;10957;50.968;6.828;2022-11-21T10:41:50;8.15;;;7.75;;
21589;SDS011;10957;50.968;6.828;2022-11-21T10:46:58;7.80;;;7.40;;
21589;SDS011;10957;50.968;6.828;2022-11-21T10:52:04;7.70;;;7.30;;
21589;SDS011;10957;50.968;6.828;2022-11-21T10:57:15;7.60;;;7.20;;
21589;SDS011;10957;50.968;6.828;2022-11-21T11:07:20;7.57;;;7.18;;
21589;SDS011;10957;50.968;6.828;2022-11-21T11:12:22;7.30;;;7.00;;
21589;SDS011;10957;50.968;6.828;2022-11-21T11:18:11;7.47;;;7.07;;
21589;SDS011;10957;50.968;6.828;2022-11-21T11:23:14;7.65;;;7.25;;
21589;SDS011;10957;50.968;6.828;2022-11-21T11:28:17;7.38;;;7.07;;
21589;SDS011;10957;50.968;6.828;2022-11-21T11:38:36;7.70;;;7.30;;
21589;SDS011;10957;50.968;6.828;2022-11-21T11:55:18;7.60;;;7.20;;
21589;SDS011;10957;50.968;6.828;2022-11-21T12:00:25;6.50;;;6.20;;
21589;SDS011;10957;50.968;6.828;2022-11-21T12:05:51;7.28;;;6.97;;
21589;SDS011;10957;50.968;6.828;2022-11-21T12:10:59;6.80;;;6.50;;
21589;SDS011;10957;50.968;6.828;2022-11-21T12:16:24;6.70;;;6.40;;
21589;SDS011;10957;50.968;6.828;2022-11-21T12:21:26;6.60;;;6.30;;
21589;SDS011;10957;50.968;6.828;2022-11-21T12:43:17;6.50;;;6.20;;
21589;SDS011;10957;50.968;6.828;2022-11-21T12:53:35;6.28;;;5.97;;
21589;SDS011;10957;50.968;6.828;2022-11-21T12:59:16;6.60;;;6.30;;
21589;SDS011;10957;50.968;6.828;2022-11-21T13:04:37;6.80;;;6.50;;
21589;SDS011;10957;50.968;6.828;2022-11-21T13:09:40;6.70;;;6.40;;
21589;SDS011;10957;50.968;6.828;2022-11-21T13:20:23;6.30;;;6.00;;
21589;SDS011;10957;50.968;6.828;2022-11-21T13:30:30;7.47;;;7.10;;
21589;SDS011;10957;50.968;6.828;2022-11-21T13:40:56;6.30;;;6.00;;
21589;SDS011;10957;50.968;6.828;2022-11-21T13:52:01;6.63;;;6.32;;
21589;SDS011;10957;50.968;6.828;2022-11-21T14:03:00;6.70;;;6.40;;
21589;SDS011;10957;50.968;6.828;2022-11-21T14:08:23;7.90;;;7.30;;
21589;SDS011;10957;50.968;6.828;2022-11-21T14:13:33;6.72;;;6.40;;
21589;SDS011;10957;50.968;6.828;2022-11-21T14:18:37;6.50;;;6.20;;
21589;SDS011;10957;50.968;6.828;2022-11-21T14:23:41;7.05;;;6.75;;
21589;SDS011;10957;50.968;6.828;2022-11-21T14:28:44;6.90;;;6.60;;
21589;SDS011;10957;50.968;6.828;2022-11-21T14:33:45;6.70;;;6.40;;
21589;SDS011;10957;50.968;6.828;2022-11-21T14:49:16;6.68;;;6.38;;
21589;SDS011;10957;50.968;6.828;2022-11-21T14:54:23;6.60;;;6.30;;
21589;SDS011;10957;50.968;6.828;2022-11-21T14:59:28;6.60;;;6.30;;
21589;SDS011;10957;50.968;6.828;2022-11-21T15:04:33;6.70;;;6.40;;
21589;SDS011;10957;50.968;6.828;2022-11-21T15:09:35;6.60;;;6.30;;
21589;SDS011;10957;50.968;6.828;2022-11-21T15:14:58;6.82;;;6.53;;
21589;SDS011;10957;50.968;6.828;2022-11-21T15:20:23;6.63;;;6.32;;
21589;SDS011;10957;50.968;6.828;2022-11-21T15:25:24;6.70;;;6.40;;
21589;SDS011;10957;50.968;6.828;2022-11-21T15:30:30;7.20;;;6.90;;
21589;SDS011;10957;50.968;6.828;2022-11-21T15:46:03;6.50;;;6.20;;
21589;SDS011;10957;50.968;6.828;2022-11-21T15:51:10;7.78;;;7.30;;
21589;SDS011;10957;50.968;6.828;2022-11-21T15:56:12;6.75;;;6.45;;
21589;SDS011;10957;50.968;6.828;2022-11-21T16:01:16;6.80;;;6.50;;
21589;SDS011;10957;50.968;6.828;2022-11-21T16:06:19;6.70;;;6.40;;
21589;SDS011;10957;50.968;6.828;2022-11-21T16:11:22;9.98;;;9.48;;
21589;SDS011;10957;50.968;6.828;2022-11-21T16:16:31;7.03;;;6.72;;
21589;SDS011;10957;50.968;6.828;2022-11-21T16:21:35;7.78;;;7.38;;
21589;SDS011;10957;50.968;6.828;2022-11-21T16:26:36;7.35;;;7.00;;
21589;SDS011;10957;50.968;6.828;2022-11-21T16:31:37;7.07;;;6.78;;
21589;SDS011;10957;50.968;6.828;2022-11-21T16:36:39;6.63;;;6.32;;
21589;SDS011;10957;50.968;6.828;2022-11-21T16:41:39;6.60;;;6.30;;
21589;SDS011;10957;50.968;6.828;2022-11-21T16:46:43;6.72;;;6.43;;
21589;SDS011;10957;50.968;6.828;2022-11-21T16:51:47;6.70;;;6.40;;
21589;SDS011;10957;50.968;6.828;2022-11-21T16:56:47;6.65;;;6.35;;
21589;SDS011;10957;50.968;6.828;2022-11-21T17:01:48;6.65;;;6.35;;
21589;SDS011;10957;50.968;6.828;2022-11-21T17:06:49;6.70;;;6.40;;
21589;SDS011;10957;50.968;6.828;2022-11-21T17:11:50;7.13;;;6.82;;
21589;SDS011;10957;50.968;6.828;2022-11-21T17:16:50;6.85;;;6.55;;
21589;SDS011;10957;50.968;6.828;2022-11-21T17:21:51;7.43;;;7.03;;
21589;SDS011;10957;50.968;6.828;2022-11-21T17:26:52;7.00;;;6.70;;
21589;SDS011;10957;50.968;6.828;2022-11-21T17:31:53;7.30;;;7.00;;
21589;SDS011;10957;50.968;6.828;2022-11-21T17:36:54;7.60;;;7.20;;
21589;SDS011;10957;50.968;6.828;2022-11-21T17:41:55;7.07;;;6.78;;
21589;SDS011;10957;50.968;6.828;2022-11-21T17:46:55;7.15;;;6.85;;
21589;SDS011;10957;50.968;6.828;2022-11-21T17:51:58;9.38;;;7.45;;
21589;SDS011;10957;50.968;6.828;2022-11-21T17:56:59;7.22;;;6.82;;
21589;SDS011;10957;50.968;6.828;2022-11-21T18:02:00;6.55;;;6.25;;
21589;SDS011;10957;50.968;6.828;2022-11-21T18:07:01;6.72;;;6.43;;
21589;SDS011;10957;50.968;6.828;2022-11-21T18:12:01;6.70;;;6.40;;
21589;SDS011;10957;50.968;6.828;2022-11-21T18:17:02;6.60;;;6.30;;
21589;SDS011;10957;50.968;6.828;2022-11-21T18:22:04;6.60;;;6.30;;
21589;SDS011;10957;50.968;6.828;2022-11-21T18:27:05;6.50;;;6.20;;
21589;SDS011;10957;50.968;6.828;2022-11-21T18:32:06;7.10;;;6.80;;
21589;SDS011;10957;50.968;6.828;2022-11-21T18:37:06;7.38;;;6.97;;
21589;SDS011;10957;50.968;6.828;2022-11-21T18:42:07;7.20;;;6.90;;
21589;SDS011;10957;50.968;6.828;2022-11-21T18:47:08;7.28;;;6.97;;
21589;SDS011;10957;50.968;6.828;2022-11-21T18:52:08;8.45;;;8.00;;
21589;SDS011;10957;50.968;6.828;2022-11-21T18:57:09;6.88;;;6.57;;
21589;SDS011;10957;50.968;6.828;2022-11-21T19:02:10;7.55;;;7.15;;
21589;SDS011;10957;50.968;6.828;2022-11-21T19:07:11;6.88;;;6.55;;
21589;SDS011;10957;50.968;6.828;2022-11-21T19:12:11;6.90;;;6.50;;
21589;SDS011;10957;50.968;6.828;2022-11-21T19:17:12;6.50;;;6.20;;
21589;SDS011;10957;50.968;6.828;2022-11-21T19:22:13;6.50;;;6.20;;
21589;SDS011;10957;50.968;6.828;2022-11-21T19:27:14;7.38;;;6.80;;
21589;SDS011;10957;50.968;6.828;2022-11-21T19:32:14;6.75;;;6.45;;
21589;SDS011;10957;50.968;6.828;2022-11-21T19:37:15;7.47;;;6.97;;
21589;SDS011;10957;50.968;6.828;2022-11-21T19:42:16;7.45;;;7.05;;
21589;SDS011;10957;50.968;6.828;2022-11-21T19:47:16;7.53;;;7.10;;
21589;SDS011;10957;50.968;6.828;2022-11-21T19:52:17;6.60;;;6.25;;
21589;SDS011;10957;50.968;6.828;2022-11-21T19:57:25;6.88;;;6.57;;
21589;SDS011;10957;50.968;6.828;2022-11-21T20:02:26;9.35;;;8.85;;
21589;SDS011;10957;50.968;6.828;2022-11-21T20:07:26;6.80;;;6.43;;
21589;SDS011;10957;50.968;6.828;2022-11-21T20:12:27;6.80;;;6.50;;
21589;SDS011;10957;50.968;6.828;2022-11-21T20:17:28;9.90;;;9.15;;
21589;SDS011;10957;50.968;6.828;2022-11-21T20:22:29;6.93;;;6.63;;
21589;SDS011;10957;50.968;6.828;2022-11-21T20:27:29;6.93;;;6.63;;
21589;SDS011;10957;50.968;6.828;2022-11-21T20:32:30;6.50;;;6.20;;
21589;SDS011;10957;50.968;6.828;2022-11-21T20:37:32;6.20;;;5.90;;
21589;SDS011;10957;50.968;6.828;2022-11-21T20:42:33;6.13;;;5.75;;
21589;SDS011;10957;50.968;6.828;2022-11-21T20:47:35;6.68;;;6.30;;
21589;SDS011;10957;50.968;6.828;2022-11-21T20:52:36;7.03;;;6.72;;
21589;SDS011;10957;50.968;6.828;2022-11-21T20:57:37;6.55;;;6.18;;
21589;SDS011;10957;50.968;6.828;2022-11-21T21:02:38;6.60;;;6.30;;
21589;SDS011;10957;50.968;6.828;2022-11-21T21:07:39;7.88;;;7.43;;
21589;SDS011;10957;50.968;6.828;2022-11-21T21:12:39;7.05;;;6.65;;
21589;SDS011;10957;50.968;6.828;2022-11-21T21:17:40;6.65;;;6.35;;
21589;SDS011;10957;50.968;6.828;2022-11-21T21:22:41;6.60;;;6.30;;
21589;SDS011;10957;50.968;6.828;2022-11-21T21:27:42;8.15;;;7.65;;
21589;SDS011;10957;50.968;6.828;2022-11-21T21:32:42;6.63;;;6.32;;
21589;SDS011;10957;50.968;6.828;2022-11-21T21:37:43;6.82;;;6.53;;
21589;SDS011;10957;50.968;6.828;2022-11-21T21:42:45;8.60;;;8.05;;
21589;SDS011;10957;50.968;6.828;2022-11-21T21:47:45;6.10;;;5.80;;
21589;SDS011;10957;50.968;6.828;2022-11-21T21:52:46;5.97;;;5.68;;
21589;SDS011;10957;50.968;6.828;2022-11-21T21:57:47;5.55;;;5.35;;
21589;SDS011;10957;50.968;6.828;2022-11-21T22:02:48;6.78;;;6.47;;
21589;SDS011;10957;50.968;6.828;2022-11-21T22:07:48;6.38;;;6.00;;
21589;SDS011;10957;50.968;6.828;2022-11-21T22:12:49;5.60;;;5.40;;
21589;SDS011;10957;50.968;6.828;2022-11-21T22:17:51;5.57;;;5.38;;
21589;SDS011;10957;50.968;6.828;2022-11-21T22:22:52;5.50;;;5.30;;
21589;SDS011;10957;50.968;6.828;2022-11-21T22:27:53;5.40;;;5.20;;
21589;SDS011;10957;50.968;6.828;2022-11-21T22:32:53;5.38;;;5.18;;
21589;SDS011;10957;50.968;6.828;2022-11-21T22:37:54;5.50;;;5.30;;
21589;SDS011;10957;50.968;6.828;2022-11-21T22:42:55;5.55;;;5.35;;
21589;SDS011;10957;50.968;6.828;2022-11-21T22:47:55;5.40;;;5.20;;
21589;SDS011;10957;50.968;6.828;2022-11-21T22:52:56;5.88;;;5.57;;
21589;SDS011;10957;50.968;6.828;2022-11-21T22:57:57;6.00;;;5.70;;
21589;SDS011;10957;50.968;6.828;2022-11-21T23:02:58;5.90;;;5.60;;
21589;SDS011;10957;50.968;6.828;2022-11-21T23:07:58;6.20;;;5.90;;
21589;SDS011;10957;50.968;6.828;2022-11-21T23:12:59;6.75;;;6.45;;
21589;SDS011;10957;50.968;6.828;2022-11-21T23:18:00;6.40;;;6.10;;
21589;SDS011;10957;50.968;6.828;2022-11-21T23:23:00;7.00;;;6.70;;
21589;SDS011;10957;50.968;6.828;2022-11-21T23:28:01;6.80;;;6.50;;
21589;SDS011;10957;50.968;6.828;2022-11-21T23:33:02;6.68;;;6.38;;
21589;SDS011;10957;50.968;6.828;2022-11-21T23:38:03;7.00;;;6.70;;
21589;SDS011;10957;50.968;6.828;2022-11-21T23:43:04;7.78;;;7.38;;
21589;SDS011;10957;50.968;6.828;2022-11-21T23:48:05;8.07;;;7.68;;
21589;SDS011;10957;50.968;6.828;2022-11-21T23:53:05;7.68;;;7.28;;
21589;SDS011;10957;50.968;6.828;2022-11-21T23:58:06;8.05;;;7.65;;
